sensor_id;sensor_type;location;lat;lon;timestamp;temperature;humidity
53643;DHT22;39546;45.534;12.048;2022-11-21T00:05:49;9.60;85.60
53643;DHT22;39546;45.534;12.048;2022-11-21T00:11:51;9.60;85.60
53643;DHT22;39546;45.534;12.048;2022-11-21T00:17:53;9.60;85.50
53643;DHT22;39546;45.534;12.048;2022-11-21T00:23:55;9.60;85.40
53643;DHT22;39546;45.534;12.048;2022-11-21T00:29:57;9.60;85.30
53643;DHT22;39546;45.534;12.048;2022-11-21T00:36:07;9.60;85.40
53643;DHT22;39546;45.534;12.048;2022-11-21T00:42:09;9.50;85.40
53643;DHT22;39546;45.534;12.048;2022-11-21T00:48:11;9.50;85.40
53643;DHT22;39546;45.534;12.048;2022-11-21T00:54:13;9.40;85.70
53643;DHT22;39546;45.534;12.048;2022-11-21T01:00:15;9.40;85.80
53643;DHT22;39546;45.534;12.048;2022-11-21T01:06:17;9.40;85.70
53643;DHT22;39546;45.534;12.048;2022-11-21T01:12:19;9.40;85.70
53643;DHT22;39546;45.534;12.048;2022-11-21T01:18:21;9.40;85.70
53643;DHT22;39546;45.534;12.048;2022-11-21T01:24:23;9.40;85.60
53643;DHT22;39546;45.534;12.048;2022-11-21T01:30:25;9.40;85.60
53643;DHT22;39546;45.534;12.048;2022-11-21T01:36:29;9.40;85.50
53643;DHT22;39546;45.534;12.048;2022-11-21T01:43:11;9.40;85.60
53643;DHT22;39546;45.534;12.048;2022-11-21T01:49:28;9.40;85.50
53643;DHT22;39546;45.534;12.048;2022-11-21T01:55:32;9.40;85.40
53643;DHT22;39546;45.534;12.048;2022-11-21T02:01:35;9.40;85.60
53643;DHT22;39546;45.534;12.048;2022-11-21T02:07:40;9.40;85.60
53643;DHT22;39546;45.534;12.048;2022-11-21T02:13:43;9.40;85.60
53643;DHT22;39546;45.534;12.048;2022-11-21T02:25:56;9.50;85.50
53643;DHT22;39546;45.534;12.048;2022-11-21T02:32:01;9.30;85.40
53643;DHT22;39546;45.534;12.048;2022-11-21T02:44:32;9.20;85.60
53643;DHT22;39546;45.534;12.048;2022-11-21T02:50:37;9.20;85.70
53643;DHT22;39546;45.534;12.048;2022-11-21T02:56:42;9.20;85.50
53643;DHT22;39546;45.534;12.048;2022-11-21T03:02:44;9.10;85.70
53643;DHT22;39546;45.534;12.048;2022-11-21T03:08:46;9.20;85.60
53643;DHT22;39546;45.534;12.048;2022-11-21T03:14:48;9.20;85.50
53643;DHT22;39546;45.534;12.048;2022-11-21T03:20:50;9.10;85.50
53643;DHT22;39546;45.534;12.048;2022-11-21T03:26:53;9.10;85.50
53643;DHT22;39546;45.534;12.048;2022-11-21T03:32:55;8.90;85.60
53643;DHT22;39546;45.534;12.048;2022-11-21T03:38:58;8.90;85.80
53643;DHT22;39546;45.534;12.048;2022-11-21T03:44:59;8.80;85.70
53643;DHT22;39546;45.534;12.048;2022-11-21T03:51:02;8.80;85.70
53643;DHT22;39546;45.534;12.048;2022-11-21T03:57:04;8.80;85.70
53643;DHT22;39546;45.534;12.048;2022-11-21T04:03:06;8.70;85.60
53643;DHT22;39546;45.534;12.048;2022-11-21T04:09:08;8.70;85.50
53643;DHT22;39546;45.534;12.048;2022-11-21T04:15:10;8.70;85.60
53643;DHT22;39546;45.534;12.048;2022-11-21T04:21:12;8.70;85.50
53643;DHT22;39546;45.534;12.048;2022-11-21T04:27:14;8.70;85.50
53643;DHT22;39546;45.534;12.048;2022-11-21T04:33:17;8.60;85.40
53643;DHT22;39546;45.534;12.048;2022-11-21T04:39:19;8.60;85.30
53643;DHT22;39546;45.534;12.048;2022-11-21T04:45:21;8.50;85.40
53643;DHT22;39546;45.534;12.048;2022-11-21T04:51:23;8.50;85.50
53643;DHT22;39546;45.534;12.048;2022-11-21T04:57:27;8.40;85.30
53643;DHT22;39546;45.534;12.048;2022-11-21T05:03:29;8.30;85.40
53643;DHT22;39546;45.534;12.048;2022-11-21T05:09:31;8.20;85.40
53643;DHT22;39546;45.534;12.048;2022-11-21T05:15:33;8.20;85.40
53643;DHT22;39546;45.534;12.048;2022-11-21T05:21:35;8.30;85.40
53643;DHT22;39546;45.534;12.048;2022-11-21T05:27:37;8.20;85.40
53643;DHT22;39546;45.534;12.048;2022-11-21T05:33:39;8.40;85.50
53643;DHT22;39546;45.534;12.048;2022-11-21T05:39:41;8.30;85.40
53643;DHT22;39546;45.534;12.048;2022-11-21T05:45:43;8.60;85.60
53643;DHT22;39546;45.534;12.048;2022-11-21T05:51:46;8.70;84.90
53643;DHT22;39546;45.534;12.048;2022-11-21T05:57:47;8.60;85.10
53643;DHT22;39546;45.534;12.048;2022-11-21T06:03:49;8.50;84.90
53643;DHT22;39546;45.534;12.048;2022-11-21T06:09:51;8.50;85.30
53643;DHT22;39546;45.534;12.048;2022-11-21T06:15:58;8.70;85.20
53643;DHT22;39546;45.534;12.048;2022-11-21T06:22:01;8.70;85.00
53643;DHT22;39546;45.534;12.048;2022-11-21T06:28:03;8.90;85.10
53643;DHT22;39546;45.534;12.048;2022-11-21T06:34:05;9.00;84.40
53643;DHT22;39546;45.534;12.048;2022-11-21T06:40:07;8.80;84.20
53643;DHT22;39546;45.534;12.048;2022-11-21T06:46:10;8.70;84.40
53643;DHT22;39546;45.534;12.048;2022-11-21T06:52:34;8.90;84.20
53643;DHT22;39546;45.534;12.048;2022-11-21T06:58:36;9.10;83.90
53643;DHT22;39546;45.534;12.048;2022-11-21T07:05:07;9.20;83.60
53643;DHT22;39546;45.534;12.048;2022-11-21T07:11:13;9.20;83.40
53643;DHT22;39546;45.534;12.048;2022-11-21T07:17:16;9.30;83.10
53643;DHT22;39546;45.534;12.048;2022-11-21T07:23:18;9.40;83.10
53643;DHT22;39546;45.534;12.048;2022-11-21T07:29:20;9.40;82.90
53643;DHT22;39546;45.534;12.048;2022-11-21T07:35:23;9.50;82.80
53643;DHT22;39546;45.534;12.048;2022-11-21T07:41:25;9.50;83.00
53643;DHT22;39546;45.534;12.048;2022-11-21T07:47:27;9.50;82.70
53643;DHT22;39546;45.534;12.048;2022-11-21T07:53:30;9.30;83.50
53643;DHT22;39546;45.534;12.048;2022-11-21T07:59:33;9.60;83.80
53643;DHT22;39546;45.534;12.048;2022-11-21T08:05:42;9.60;84.20
53643;DHT22;39546;45.534;12.048;2022-11-21T08:11:47;9.70;84.20
53643;DHT22;39546;45.534;12.048;2022-11-21T08:17:49;9.90;84.50
53643;DHT22;39546;45.534;12.048;2022-11-21T08:23:51;10.20;84.50
53643;DHT22;39546;45.534;12.048;2022-11-21T08:29:53;10.30;84.30
53643;DHT22;39546;45.534;12.048;2022-11-21T08:35:56;10.40;84.60
53643;DHT22;39546;45.534;12.048;2022-11-21T08:41:58;10.50;84.70
53643;DHT22;39546;45.534;12.048;2022-11-21T08:48:10;10.50;84.70
53643;DHT22;39546;45.534;12.048;2022-11-21T08:54:12;10.10;85.00
53643;DHT22;39546;45.534;12.048;2022-11-21T09:00:15;9.80;85.40
53643;DHT22;39546;45.534;12.048;2022-11-21T09:06:37;9.70;85.60
53643;DHT22;39546;45.534;12.048;2022-11-21T09:12:39;9.70;85.50
53643;DHT22;39546;45.534;12.048;2022-11-21T09:18:41;9.60;85.60
53643;DHT22;39546;45.534;12.048;2022-11-21T09:24:44;9.70;85.80
53643;DHT22;39546;45.534;12.048;2022-11-21T09:30:46;9.60;85.40
53643;DHT22;39546;45.534;12.048;2022-11-21T09:37:07;9.70;85.80
53643;DHT22;39546;45.534;12.048;2022-11-21T09:49:26;10.20;86.10
53643;DHT22;39546;45.534;12.048;2022-11-21T10:02:14;10.40;86.20
53643;DHT22;39546;45.534;12.048;2022-11-21T10:08:27;10.60;85.90
53643;DHT22;39546;45.534;12.048;2022-11-21T10:27:42;10.80;85.90
53643;DHT22;39546;45.534;12.048;2022-11-21T10:34:14;11.00;86.30
53643;DHT22;39546;45.534;12.048;2022-11-21T10:40:39;11.30;86.30
53643;DHT22;39546;45.534;12.048;2022-11-21T10:46:59;11.30;85.80
53643;DHT22;39546;45.534;12.048;2022-11-21T10:53:04;11.30;85.70
53643;DHT22;39546;45.534;12.048;2022-11-21T10:59:29;11.50;85.80
53643;DHT22;39546;45.534;12.048;2022-11-21T11:05:33;11.80;85.80
53643;DHT22;39546;45.534;12.048;2022-11-21T11:11:35;12.10;85.70
53643;DHT22;39546;45.534;12.048;2022-11-21T11:17:37;12.30;85.00
53643;DHT22;39546;45.534;12.048;2022-11-21T11:23:40;12.30;85.00
53643;DHT22;39546;45.534;12.048;2022-11-21T11:29:50;12.40;85.20
53643;DHT22;39546;45.534;12.048;2022-11-21T11:35:54;12.40;85.30
53643;DHT22;39546;45.534;12.048;2022-11-21T11:48:20;12.40;85.20
53643;DHT22;39546;45.534;12.048;2022-11-21T11:54:28;12.30;85.10
53643;DHT22;39546;45.534;12.048;2022-11-21T12:00:41;12.20;85.30
53643;DHT22;39546;45.534;12.048;2022-11-21T12:07:20;12.30;85.50
53643;DHT22;39546;45.534;12.048;2022-11-21T12:13:23;12.40;85.30
53643;DHT22;39546;45.534;12.048;2022-11-21T12:19:27;12.40;86.10
53643;DHT22;39546;45.534;12.048;2022-11-21T12:25:32;12.40;86.30
53643;DHT22;39546;45.534;12.048;2022-11-21T13:04:24;12.80;86.90
53643;DHT22;39546;45.534;12.048;2022-11-21T13:10:29;12.80;87.00
53643;DHT22;39546;45.534;12.048;2022-11-21T13:16:32;12.80;86.60
53643;DHT22;39546;45.534;12.048;2022-11-21T13:28:45;12.70;87.00
53643;DHT22;39546;45.534;12.048;2022-11-21T13:34:47;12.60;87.60
53643;DHT22;39546;45.534;12.048;2022-11-21T13:40:49;12.60;87.90
53643;DHT22;39546;45.534;12.048;2022-11-21T14:06:43;12.80;88.00
53643;DHT22;39546;45.534;12.048;2022-11-21T14:12:47;12.80;87.90
53643;DHT22;39546;45.534;12.048;2022-11-21T14:18:52;13.00;88.00
53643;DHT22;39546;45.534;12.048;2022-11-21T14:24:56;13.00;88.00
53643;DHT22;39546;45.534;12.048;2022-11-21T14:31:04;13.00;88.00
53643;DHT22;39546;45.534;12.048;2022-11-21T14:37:12;12.90;88.20
53643;DHT22;39546;45.534;12.048;2022-11-21T14:43:30;12.80;88.30
53643;DHT22;39546;45.534;12.048;2022-11-21T14:49:32;12.70;88.40
53643;DHT22;39546;45.534;12.048;2022-11-21T14:55:34;12.60;88.60
53643;DHT22;39546;45.534;12.048;2022-11-21T15:01:36;12.60;88.60
53643;DHT22;39546;45.534;12.048;2022-11-21T15:07:44;12.50;88.60
53643;DHT22;39546;45.534;12.048;2022-11-21T15:13:49;12.40;88.60
53643;DHT22;39546;45.534;12.048;2022-11-21T15:20:05;12.30;88.90
53643;DHT22;39546;45.534;12.048;2022-11-21T15:26:27;12.30;88.90
53643;DHT22;39546;45.534;12.048;2022-11-21T15:32:30;12.20;88.70
53643;DHT22;39546;45.534;12.048;2022-11-21T15:38:40;12.20;88.60
53643;DHT22;39546;45.534;12.048;2022-11-21T15:51:18;12.20;88.50
53643;DHT22;39546;45.534;12.048;2022-11-21T15:57:20;12.10;88.60
53643;DHT22;39546;45.534;12.048;2022-11-21T16:03:23;11.90;88.40
53643;DHT22;39546;45.534;12.048;2022-11-21T16:09:25;11.90;88.40
53643;DHT22;39546;45.534;12.048;2022-11-21T16:15:27;11.70;88.30
53643;DHT22;39546;45.534;12.048;2022-11-21T16:21:29;11.70;88.50
53643;DHT22;39546;45.534;12.048;2022-11-21T16:27:31;11.70;88.40
53643;DHT22;39546;45.534;12.048;2022-11-21T16:33:34;11.70;88.30
53643;DHT22;39546;45.534;12.048;2022-11-21T16:39:37;11.70;88.20
53643;DHT22;39546;45.534;12.048;2022-11-21T16:45:39;11.70;88.20
53643;DHT22;39546;45.534;12.048;2022-11-21T16:51:41;11.60;88.20
53643;DHT22;39546;45.534;12.048;2022-11-21T16:57:42;11.60;88.00
53643;DHT22;39546;45.534;12.048;2022-11-21T17:03:46;11.50;87.80
53643;DHT22;39546;45.534;12.048;2022-11-21T17:09:50;11.60;87.90
53643;DHT22;39546;45.534;12.048;2022-11-21T17:15:52;11.50;87.80
53643;DHT22;39546;45.534;12.048;2022-11-21T17:21:55;11.50;87.90
53643;DHT22;39546;45.534;12.048;2022-11-21T17:27:57;11.50;88.00
53643;DHT22;39546;45.534;12.048;2022-11-21T17:34:01;11.50;88.10
53643;DHT22;39546;45.534;12.048;2022-11-21T17:40:04;11.40;88.20
53643;DHT22;39546;45.534;12.048;2022-11-21T17:46:17;11.40;88.20
53643;DHT22;39546;45.534;12.048;2022-11-21T17:52:19;11.20;88.20
53643;DHT22;39546;45.534;12.048;2022-11-21T17:58:23;11.10;88.20
53643;DHT22;39546;45.534;12.048;2022-11-21T18:04:25;11.10;88.30
53643;DHT22;39546;45.534;12.048;2022-11-21T18:10:28;11.10;88.30
53643;DHT22;39546;45.534;12.048;2022-11-21T18:16:32;11.00;88.10
53643;DHT22;39546;45.534;12.048;2022-11-21T18:22:35;10.90;88.20
53643;DHT22;39546;45.534;12.048;2022-11-21T18:28:38;10.90;88.10
53643;DHT22;39546;45.534;12.048;2022-11-21T18:34:40;10.80;88.10
53643;DHT22;39546;45.534;12.048;2022-11-21T18:40:42;10.70;88.40
53643;DHT22;39546;45.534;12.048;2022-11-21T18:46:44;10.90;88.40
53643;DHT22;39546;45.534;12.048;2022-11-21T18:52:47;11.00;88.10
53643;DHT22;39546;45.534;12.048;2022-11-21T18:58:51;11.00;88.00
53643;DHT22;39546;45.534;12.048;2022-11-21T19:04:53;11.00;88.00
53643;DHT22;39546;45.534;12.048;2022-11-21T19:11:04;11.00;87.90
53643;DHT22;39546;45.534;12.048;2022-11-21T19:17:19;10.90;88.10
53643;DHT22;39546;45.534;12.048;2022-11-21T19:23:22;10.90;88.20
53643;DHT22;39546;45.534;12.048;2022-11-21T19:29:24;10.90;88.20
53643;DHT22;39546;45.534;12.048;2022-11-21T19:35:26;10.90;88.20
53643;DHT22;39546;45.534;12.048;2022-11-21T19:41:29;11.00;88.20
53643;DHT22;39546;45.534;12.048;2022-11-21T19:47:32;11.00;88.20
53643;DHT22;39546;45.534;12.048;2022-11-21T19:53:36;11.00;88.30
53643;DHT22;39546;45.534;12.048;2022-11-21T19:59:40;11.00;88.50
53643;DHT22;39546;45.534;12.048;2022-11-21T20:05:46;11.10;88.30
53643;DHT22;39546;45.534;12.048;2022-11-21T20:11:56;11.00;88.20
53643;DHT22;39546;45.534;12.048;2022-11-21T20:18:00;10.90;88.50
53643;DHT22;39546;45.534;12.048;2022-11-21T20:24:03;10.90;88.50
53643;DHT22;39546;45.534;12.048;2022-11-21T20:30:07;10.90;88.40
53643;DHT22;39546;45.534;12.048;2022-11-21T20:36:16;10.80;88.40
53643;DHT22;39546;45.534;12.048;2022-11-21T20:42:20;10.90;88.30
53643;DHT22;39546;45.534;12.048;2022-11-21T20:48:22;11.00;88.50
53643;DHT22;39546;45.534;12.048;2022-11-21T21:01:10;10.80;88.60
53643;DHT22;39546;45.534;12.048;2022-11-21T21:07:15;10.80;88.60
53643;DHT22;39546;45.534;12.048;2022-11-21T21:13:17;10.60;88.00
53643;DHT22;39546;45.534;12.048;2022-11-21T21:19:20;10.60;88.60
53643;DHT22;39546;45.534;12.048;2022-11-21T21:25:22;10.60;88.70
53643;DHT22;39546;45.534;12.048;2022-11-21T21:31:25;10.70;88.40
53643;DHT22;39546;45.534;12.048;2022-11-21T21:37:27;10.60;88.50
53643;DHT22;39546;45.534;12.048;2022-11-21T21:43:30;10.70;88.60
53643;DHT22;39546;45.534;12.048;2022-11-21T21:49:33;10.70;88.60
53643;DHT22;39546;45.534;12.048;2022-11-21T21:55:35;10.60;88.60
53643;DHT22;39546;45.534;12.048;2022-11-21T22:01:37;10.50;88.90
53643;DHT22;39546;45.534;12.048;2022-11-21T22:07:39;10.40;89.00
53643;DHT22;39546;45.534;12.048;2022-11-21T22:13:44;10.40;89.00
53643;DHT22;39546;45.534;12.048;2022-11-21T22:19:46;10.50;89.00
53643;DHT22;39546;45.534;12.048;2022-11-21T22:25:48;10.50;88.90
53643;DHT22;39546;45.534;12.048;2022-11-21T22:31:50;10.30;88.70
53643;DHT22;39546;45.534;12.048;2022-11-21T22:37:53;10.30;89.00
53643;DHT22;39546;45.534;12.048;2022-11-21T22:43:57;10.10;88.20
53643;DHT22;39546;45.534;12.048;2022-11-21T22:49:59;9.80;88.30
53643;DHT22;39546;45.534;12.048;2022-11-21T22:56:17;9.80;89.00
53643;DHT22;39546;45.534;12.048;2022-11-21T23:02:19;10.00;89.10
53643;DHT22;39546;45.534;12.048;2022-11-21T23:08:21;10.10;89.00
53643;DHT22;39546;45.534;12.048;2022-11-21T23:14:23;10.10;89.00
53643;DHT22;39546;45.534;12.048;2022-11-21T23:20:31;10.20;89.10
53643;DHT22;39546;45.534;12.048;2022-11-21T23:26:33;10.10;89.00
53643;DHT22;39546;45.534;12.048;2022-11-21T23:32:35;9.90;88.80
53643;DHT22;39546;45.534;12.048;2022-11-21T23:38:37;9.90;89.10
53643;DHT22;39546;45.534;12.048;2022-11-21T23:44:39;9.90;89.30
53643;DHT22;39546;45.534;12.048;2022-11-21T23:50:42;9.90;89.30
53643;DHT22;39546;45.534;12.048;2022-11-21T23:56:44;10.10;89.40
